Time;durP1;ratioP1;P1;durP2;ratioP2;P2;SDS_P1;SDS_P2;PMS_P1;PMS_P2;Temp;Humidity;BMP_temperature;BMP_pressure;BME280_temperature;BME280_humidity;BME280_pressure;Samples;Min_cycle;Max_cycle;Signal;HPM_P1;HPM_P2
2022/09/20 00:01:25;;;;;;;3.45;2.50;;;;;;;9.69;90.41;98394.30;1611852;89;28602;-61
2022/09/20 00:03:56;;;;;;;3.67;2.45;;;;;;;9.65;90.22;98386.72;1607712;89;25748;-61
2022/09/20 00:06:27;;;;;;;4.80;2.20;;;;;;;9.62;90.26;98390.66;1607801;89;25758;-61
2022/09/20 00:08:54;;;;;;;4.45;2.52;;;;;;;9.64;90.10;98387.86;1607921;89;26136;-61
2022/09/20 00:11:27;;;;;;;4.53;2.42;;;;;;;9.64;90.80;98386.48;1607753;89;25515;-61
2022/09/20 00:13:57;;;;;;;4.03;2.85;;;;;;;9.69;90.50;98395.67;1607572;89;27412;-61
2022/09/20 00:16:34;;;;;;;3.12;2.22;;;;;;;9.70;90.43;98390.47;1607585;89;26014;-61
2022/09/20 00:19:05;;;;;;;3.50;2.02;;;;;;;9.72;90.48;98388.20;1607114;89;25510;-62
2022/09/20 00:21:32;;;;;;;;;;;;;;;9.71;90.33;98390.70;1609769;89;25692;-61
2022/09/20 00:24:00;;;;;;;3.12;2.12;;;;;;;9.67;90.44;98387.78;1607887;89;25437;-61
2022/09/20 00:26:28;;;;;;;3.98;2.45;;;;;;;9.68;90.50;98392.15;1607392;89;27676;-61
2022/09/20 00:28:56;;;;;;;4.00;2.67;;;;;;;9.69;90.57;98387.47;1607688;89;25684;-61
2022/09/20 00:31:23;;;;;;;3.33;2.10;;;;;;;9.70;90.46;98387.73;1607619;89;25781;-61
2022/09/20 00:36:39;;;;;;;5.97;2.75;;;;;;;9.74;90.47;98388.70;1607667;89;25439;-61
2022/09/20 00:39:05;;;;;;;3.05;2.40;;;;;;;9.71;90.20;98391.52;1607600;89;27688;-61
2022/09/20 00:41:32;;;;;;;4.65;2.60;;;;;;;9.72;90.33;98400.52;1607377;89;25698;-61
2022/09/20 00:44:00;;;;;;;5.28;2.70;;;;;;;9.72;90.33;98397.78;1607565;89;25731;-61
2022/09/20 00:46:42;;;;;;;3.42;2.50;;;;;;;9.75;90.38;98399.89;1607552;89;25857;-61
2022/09/20 00:49:21;;;;;;;4.37;2.70;;;;;;;9.77;90.26;98397.11;1607656;89;25545;-61
2022/09/20 00:51:51;;;;;;;3.98;2.90;;;;;;;9.79;90.14;98396.21;1604105;89;27472;-61
2022/09/20 00:54:19;;;;;;;3.83;2.90;;;;;;;9.89;90.49;98399.80;1598753;89;25671;-61
2022/09/20 00:56:46;;;;;;;3.50;2.47;;;;;;;9.93;90.07;98402.72;1598589;89;25505;-61
2022/09/20 00:59:27;;;;;;;4.53;2.85;;;;;;;9.89;90.10;98399.80;1598890;89;25856;-62
2022/09/20 01:02:12;;;;;;;4.05;2.83;;;;;;;9.92;90.04;98396.43;1597504;89;25490;-62
2022/09/20 01:04:40;;;;;;;6.05;2.60;;;;;;;9.91;89.84;98394.83;1598599;89;27400;-61
2022/09/20 01:07:28;;;;;;;4.85;2.67;;;;;;;9.92;89.94;98396.43;1598669;89;25493;-61
2022/09/20 01:09:55;;;;;;;4.25;2.70;;;;;;;9.88;89.82;98394.09;1598596;89;25823;-61
2022/09/20 01:12:25;;;;;;;4.42;2.60;;;;;;;9.89;89.86;98395.69;1598323;89;25792;-61
2022/09/20 01:14:53;;;;;;;3.37;2.45;;;;;;;9.85;89.83;98391.98;1599012;89;25694;-61
2022/09/20 01:17:22;;;;;;;4.92;2.47;;;;;;;9.81;89.58;98391.00;1598426;89;27508;-61
2022/09/20 01:20:12;;;;;;;3.67;2.40;;;;;;;9.77;89.51;98395.73;1598581;89;25480;-61
2022/09/20 01:23:23;;;;;;;5.08;2.60;;;;;;;9.76;89.51;98394.11;1598665;89;25727;-61
2022/09/20 01:26:19;;;;;;;3.70;2.50;;;;;;;9.78;89.70;98403.36;1612486;89;26489;-61
2022/09/20 01:28:48;;;;;;;3.60;2.40;;;;;;;9.75;89.71;98400.70;1611051;89;25636;-61
2022/09/20 01:31:25;;;;;;;3.95;2.42;;;;;;;9.73;89.79;98398.84;1607356;89;28199;-61
2022/09/20 01:34:14;;;;;;;4.22;2.17;;;;;;;9.75;89.54;98398.52;1607412;88;25916;-61
2022/09/20 01:36:57;;;;;;;4.35;2.22;;;;;;;9.75;89.45;98397.16;1607503;89;25779;-60
2022/09/20 01:39:57;;;;;;;3.02;2.22;;;;;;;9.75;89.56;98399.34;1606530;89;25709;-60
2022/09/20 01:42:33;;;;;;;5.10;1.90;;;;;;;9.78;89.43;98400.08;1607462;89;25686;-60
2022/09/20 01:45:26;;;;;;;2.40;1.90;;;;;;;9.79;89.55;98395.42;1607140;88;27485;-61
2022/09/20 01:47:57;;;;;;;5.12;1.87;;;;;;;9.81;89.29;98396.48;1607577;88;25502;-60
2022/09/20 01:50:44;;;;;;;3.45;1.98;;;;;;;9.81;89.13;98397.27;1604653;89;25608;-60
2022/09/20 01:53:40;;;;;;;3.08;2.33;;;;;;;9.83;89.32;98395.58;1607252;87;25782;-60
2022/09/20 01:56:42;;;;;;;3.30;3.00;;;;;;;9.84;89.04;98398.00;1607400;89;25726;-60
2022/09/20 02:00:05;;;;;;;4.78;2.95;;;;;;;9.82;89.48;98399.45;1607077;88;29527;-60
2022/09/20 02:03:15;;;;;;;3.75;2.02;;;;;;;9.78;88.98;98397.89;1607461;88;25529;-60
2022/09/20 02:05:50;;;;;;;3.40;2.35;;;;;;;9.77;88.98;98399.84;1607258;88;25612;-60
2022/09/20 02:08:54;;;;;;;2.72;1.95;;;;;;;9.82;88.97;98399.45;1607076;88;26660;-60
2022/09/20 02:11:25;;;;;;;2.33;1.80;;;;;;;9.78;89.08;98397.89;1607454;89;25715;-60
2022/09/20 02:14:22;;;;;;;5.05;2.40;;;;;;;9.75;88.93;98397.16;1607311;89;27403;-61
2022/09/20 02:17:26;;;;;;;2.80;2.10;;;;;;;9.73;89.21;98397.47;1606640;89;25753;-61
2022/09/20 02:20:06;;;;;;;2.60;1.67;;;;;;;9.73;89.18;98393.36;1607402;88;25682;-61
2022/09/20 02:23:17;;;;;;;3.00;2.08;;;;;;;9.75;89.30;98403.45;1607238;88;27022;-61
2022/09/20 02:26:22;;;;;;;3.22;1.72;;;;;;;9.76;89.07;98400.95;1607671;89;25764;-61
2022/09/20 02:28:56;;;;;;;1.98;1.57;;;;;;;9.76;88.91;98402.89;1606602;89;28343;-61
2022/09/20 02:31:49;;;;;;;2.87;1.90;;;;;;;9.74;89.10;98406.49;1591945;89;25891;-61
2022/09/20 02:34:20;;;;;;;2.90;1.85;;;;;;;9.79;89.16;98410.48;1591639;90;25907;-61
2022/09/20 02:37:01;;;;;;;4.75;1.85;;;;;;;9.80;88.82;98413.45;1591830;90;26443;-61
2022/09/20 02:40:09;;;;;;;3.62;1.80;;;;;;;9.76;89.01;98414.63;1487118;96;25729;-61
2022/09/20 02:43:04;;;;;;;2.52;1.72;;;;;;;9.74;89.01;98415.52;1486722;96;27516;-60
2022/09/20 02:46:00;;;;;;;3.08;1.90;;;;;;;9.74;89.13;98415.52;1487237;96;25610;-61
2022/09/20 02:49:04;;;;;;;2.22;1.50;;;;;;;9.74;89.04;98412.78;1487130;96;25646;-60
2022/09/20 02:51:42;;;;;;;3.25;1.50;;;;;;;9.71;89.27;98415.33;1486751;96;26147;-61
2022/09/20 02:54:54;;;;;;;1.82;1.50;;;;;;;9.68;89.23;98420.06;1465362;95;25859;-61
2022/09/20 02:57:58;;;;;;;2.55;1.50;;;;;;;9.68;89.17;98418.69;1481935;96;27655;-60
2022/09/20 03:00:31;;;;;;;3.17;1.65;;;;;;;9.64;89.04;98422.05;1478829;96;25566;-60
2022/09/20 03:03:17;;;;;;;3.45;1.75;;;;;;;9.68;89.05;98422.80;1476712;97;25811;-60
2022/09/20 03:06:10;;;;;;;2.80;1.80;;;;;;;9.65;89.02;98427.77;1476660;97;25796;-60
2022/09/20 03:08:53;;;;;;;3.95;1.82;;;;;;;9.62;89.13;98424.87;1501286;95;25588;-60
2022/09/20 03:11:33;;;;;;;2.90;1.45;;;;;;;9.63;88.95;98417.72;1456620;98;28486;-60
2022/09/20 03:14:32;;;;;;;2.57;1.40;;;;;;;9.64;88.95;98417.95;1459781;98;27211;-60
2022/09/20 03:17:19;;;;;;;3.20;1.70;;;;;;;9.65;88.68;98429.71;1457627;97;25573;-60
2022/09/20 03:20:08;;;;;;;2.58;1.62;;;;;;;9.66;88.79;98427.21;1477881;97;26590;-60
2022/09/20 03:23:08;;;;;;;2.65;1.50;;;;;;;9.67;88.72;98437.03;1488034;96;25566;-61
2022/09/20 03:26:14;;;;;;;2.15;1.77;;;;;;;9.67;88.96;98431.55;1488700;96;27524;-60
2022/09/20 03:29:01;;;;;;;4.60;2.05;;;;;;;9.64;88.98;98434.37;1487925;96;25798;-60
2022/09/20 03:31:44;;;;;;;2.80;1.98;;;;;;;9.66;89.12;98434.05;1487857;96;25804;-60
2022/09/20 03:34:44;;;;;;;2.00;1.67;;;;;;;9.68;88.88;98437.84;1485922;96;26025;-59
2022/09/20 03:37:40;;;;;;;2.83;1.80;;;;;;;9.65;89.04;98435.97;1488315;96;25742;-59
2022/09/20 03:40:45;;;;;;;3.47;1.90;;;;;;;9.65;88.89;98436.55;1472141;96;28192;-59
2022/09/20 03:43:41;;;;;;;3.22;1.90;;;;;;;9.68;88.80;98437.84;1478786;97;26313;-60
2022/09/20 03:46:26;;;;;;;3.33;2.00;;;;;;;9.71;88.91;98442.69;1478948;97;25817;-60
2022/09/20 03:49:18;;;;;;;4.22;2.42;;;;;;;9.76;88.79;98441.99;1582158;88;25626;-60
2022/09/20 03:52:21;;;;;;;2.67;2.22;;;;;;;9.81;88.89;98437.53;1620554;88;25545;-60
2022/09/20 03:55:25;;;;;;;3.25;2.08;;;;;;;9.81;88.69;98441.63;1620472;88;27459;-60
2022/09/20 03:58:19;;;;;;;4.45;1.90;;;;;;;9.78;88.70;98435.66;1619793;88;25905;-60
2022/09/20 04:01:19;;;;;;;3.92;2.33;;;;;;;9.78;88.66;98441.13;1620567;88;25643;-60
2022/09/20 04:04:03;;;;;;;3.95;2.50;;;;;;;9.79;88.77;98439.21;1620820;88;25893;-60
2022/09/20 04:06:41;;;;;;;4.50;2.65;;;;;;;9.81;89.05;98438.31;1598360;88;25425;-60
2022/09/20 04:09:36;;;;;;;4.70;2.27;;;;;;;9.84;88.90;98442.38;1620491;88;28190;-60
2022/09/20 04:12:29;;;;;;;4.95;2.67;;;;;;;9.84;88.74;98445.90;1620216;88;25782;-59
2022/09/20 04:15:31;;;;;;;5.33;3.00;;;;;;;9.79;88.78;98439.21;1620195;88;26037;-60
2022/09/20 04:18:32;;;;;;;4.95;3.35;;;;;;;9.70;89.06;98449.30;1620738;88;25695;-60
2022/09/20 04:21:39;;;;;;;7.85;3.62;;;;;;;9.68;89.17;98448.24;1620530;88;25630;-59
2022/09/20 04:24:21;;;;;;;4.37;3.42;;;;;;;9.64;89.14;98446.68;1620352;88;27424;-59
2022/09/20 04:27:02;;;;;;;4.22;2.77;;;;;;;9.63;89.31;98451.91;1619895;88;25991;-60
2022/09/20 04:29:55;;;;;;;4.70;3.02;;;;;;;9.63;89.39;98453.83;1620664;87;35231;-59
2022/09/20 04:32:50;;;;;;;5.95;3.45;;;;;;;9.64;89.30;98455.44;1620524;87;26519;-60
2022/09/20 04:38:22;;;;;;;4.78;2.42;;;;;;;9.64;89.34;98462.27;1620574;88;25631;-59
2022/09/20 04:41:21;;;;;;;4.37;2.90;;;;;;;9.65;89.34;98463.33;1620604;88;25688;-60
2022/09/20 04:44:12;;;;;;;3.17;2.37;;;;;;;9.70;89.32;98472.55;1620589;88;25481;-59
2022/09/20 04:46:56;;;;;;;;;;;;;;;9.69;89.65;98466.81;1622321;88;25441;-60
2022/09/20 04:49:54;;;;;;;3.62;2.33;;;;;;;9.71;89.57;98464.59;1620331;88;25512;-60
2022/09/20 04:52:25;;;;;;;4.05;2.35;;;;;;;9.70;89.32;98469.23;1621561;87;27392;-60
2022/09/20 04:55:09;;;;;;;3.55;2.60;;;;;;;9.69;89.20;98469.00;1633729;87;25904;-60
2022/09/20 04:58:24;;;;;;;3.37;2.12;;;;;;;9.73;89.19;98469.19;1633906;87;25569;-61
2022/09/20 05:01:18;;;;;;;2.58;1.90;;;;;;;9.75;89.15;98469.13;1634481;87;25757;-61
2022/09/20 05:04:40;;;;;;;3.30;1.92;;;;;;;9.74;88.95;98479.83;1634830;87;25744;-61
2022/09/20 05:07:40;;;;;;;3.70;2.45;;;;;;;9.77;89.18;98472.36;1634870;87;27498;-61
2022/09/20 05:10:20;;;;;;;3.58;2.30;;;;;;;9.78;89.24;98474.52;1581530;90;25496;-61
2022/09/20 05:13:12;;;;;;;3.10;2.25;;;;;;;9.76;89.26;98478.15;1585794;89;25570;-61
2022/09/20 05:16:02;;;;;;;4.35;3.30;;;;;;;9.76;89.25;98477.56;1594384;89;25829;-61
2022/09/20 05:18:51;;;;;;;3.27;2.70;;;;;;;9.79;89.26;98480.27;1570612;89;25792;-61
2022/09/20 05:21:48;;;;;;;4.28;3.87;;;;;;;9.82;89.23;98476.08;1591240;89;27461;-61
2022/09/20 05:24:33;;;;;;;5.90;4.92;;;;;;;9.85;89.25;98485.03;1591023;88;25775;-61
2022/09/20 05:27:35;;;;;;;4.15;3.02;;;;;;;9.86;89.11;98485.27;1583404;90;25715;-61
2022/09/20 05:30:15;;;;;;;7.08;2.72;;;;;;;9.86;89.29;98490.75;1583453;90;25745;-61
2022/09/20 05:33:17;;;;;;;3.65;2.20;;;;;;;9.90;89.13;98492.55;1582187;90;25555;-61
2022/09/20 05:36:12;;;;;;;3.30;2.17;;;;;;;9.95;89.03;98495.71;1583581;90;28665;-61
2022/09/20 05:39:00;;;;;;;2.95;1.98;;;;;;;9.99;88.82;98491.80;1582996;90;25736;-61
2022/09/20 05:42:00;;;;;;;4.72;1.92;;;;;;;10.01;88.89;98497.20;1583487;90;25583;-59
2022/09/20 05:45:18;;;;;;;3.83;2.22;;;;;;;10.02;88.87;98497.44;1573299;90;26981;-59
2022/09/20 05:47:58;;;;;;;3.10;2.12;;;;;;;9.99;88.82;98495.32;1624946;86;25457;-59
2022/09/20 05:50:45;;;;;;;3.45;1.80;;;;;;;10.06;88.90;98503.10;1636999;86;33085;-59
2022/09/20 05:53:38;;;;;;;4.50;2.50;;;;;;;10.13;89.08;98497.19;1634464;86;25748;-59
2022/09/20 05:56:31;;;;;;;3.37;2.30;;;;;;;10.12;88.76;98496.38;1629754;86;25796;-59
2022/09/20 05:59:28;;;;;;;4.30;2.50;;;;;;;10.17;88.82;98501.69;1629617;86;25912;-59
2022/09/20 06:02:15;;;;;;;5.03;2.30;;;;;;;10.17;88.73;98503.06;1629227;86;25746;-59
2022/09/20 06:05:00;;;;;;;3.83;2.42;;;;;;;10.17;88.59;98502.27;1580119;90;27440;-59
2022/09/20 06:07:40;;;;;;;3.40;2.60;;;;;;;10.18;88.56;98497.03;1572112;91;25717;-59
2022/09/20 06:10:39;;;;;;;3.83;2.98;;;;;;;10.19;88.42;98504.70;1572227;91;25729;-59
2022/09/20 06:13:35;;;;;;;5.28;3.00;;;;;;;10.16;88.89;98503.38;1540417;93;26484;-59
2022/09/20 06:16:08;;;;;;;4.37;3.15;;;;;;;10.14;88.99;98502.32;1540418;93;25842;-59
2022/09/20 06:19:12;;;;;;;7.35;5.03;;;;;;;10.15;89.00;98506.70;1540205;93;27508;-59
2022/09/20 06:21:54;;;;;;;6.83;3.47;;;;;;;10.17;88.92;98505.80;1523045;94;25790;-60
2022/09/20 06:24:38;;;;;;;6.20;3.20;;;;;;;10.23;88.71;98509.23;1523094;94;25982;-60
2022/09/20 06:27:10;;;;;;;4.78;2.65;;;;;;;10.26;88.23;98514.63;1523363;94;26741;-60
2022/09/20 06:29:40;;;;;;;6.10;3.58;;;;;;;10.23;88.26;98510.60;1523408;94;25573;-60
2022/09/20 06:32:07;;;;;;;5.73;3.80;;;;;;;10.27;88.11;98514.87;1523691;94;27400;-60
2022/09/20 06:34:34;;;;;;;8.00;3.22;;;;;;;10.31;88.48;98518.61;1523267;94;25774;-60
2022/09/20 06:43:30;;;;;;;5.45;2.83;;;;;;;10.42;88.13;98523.22;1547207;92;25689;-59
2022/09/20 06:45:55;;;;;;;5.80;3.12;;;;;;;10.41;88.11;98530.66;1547140;91;26799;-60
2022/09/20 06:48:23;;;;;;;6.17;2.40;;;;;;;10.44;87.87;98533.31;1547433;91;25735;-60
2022/09/20 06:50:51;;;;;;;3.33;2.37;;;;;;;10.38;87.31;98534.02;1574631;89;25794;-59
2022/09/20 06:53:22;;;;;;;3.60;2.40;;;;;;;10.31;87.07;98530.94;1579347;89;25793;-59
2022/09/20 06:55:50;;;;;;;4.37;2.47;;;;;;;10.26;86.80;98540.09;1581691;89;25777;-60
2022/09/20 06:58:16;;;;;;;5.08;3.15;;;;;;;10.29;87.32;98543.58;1613577;85;27414;-59
2022/09/20 07:00:43;;;;;;;6.35;5.50;;;;;;;10.28;87.22;98539.20;1636697;87;25527;-59
2022/09/20 07:03:11;;;;;;;7.00;5.40;;;;;;;10.23;86.83;98542.64;1636919;87;25469;-59
2022/09/20 07:05:38;;;;;;;6.90;5.50;;;;;;;10.19;86.21;98543.03;1636867;87;25543;-59
2022/09/20 07:08:06;;;;;;;6.90;5.28;;;;;;;10.22;86.31;98549.25;1636613;87;25479;-59
2022/09/20 07:10:34;;;;;;;5.37;4.55;;;;;;;10.25;86.28;98546.67;1636682;87;27459;-59
2022/09/20 07:13:01;;;;;;;5.87;5.28;;;;;;;10.26;85.67;98551.60;1637427;86;25722;-59
2022/09/20 07:15:31;;;;;;;6.45;5.67;;;;;;;10.26;85.86;98558.45;1637132;87;25479;-59
2022/09/20 07:17:59;;;;;;;10.35;4.67;;;;;;;10.30;86.52;98553.95;1636814;85;26393;-59
2022/09/20 07:20:26;;;;;;;5.10;4.60;;;;;;;10.33;86.03;98557.44;1637035;86;25470;-59
2022/09/20 07:22:53;;;;;;;9.08;5.03;;;;;;;10.40;86.41;98564.63;1636933;87;27484;-59
2022/09/20 07:25:21;;;;;;;7.47;4.20;;;;;;;10.48;86.39;98559.56;1638261;86;25500;-59
2022/09/20 07:27:50;;;;;;;4.87;3.90;;;;;;;10.51;85.94;98569.89;1637321;86;25454;-59
2022/09/20 07:30:24;;;;;;;9.88;4.78;;;;;;;10.56;86.01;98571.69;1636575;85;25737;-59
2022/09/20 07:32:51;;;;;;;5.65;5.10;;;;;;;10.61;86.01;98577.01;1635895;87;25507;-59
2022/09/20 07:35:17;;;;;;;5.50;4.12;;;;;;;10.72;86.39;98580.28;1636725;86;27375;-59
2022/09/20 07:37:44;;;;;;;5.35;4.85;;;;;;;10.78;85.57;98577.09;1636852;86;25684;-59
2022/09/20 07:40:13;;;;;;;3.98;3.55;;;;;;;10.87;85.22;98574.38;1636502;87;25550;-58
2022/09/20 07:42:40;;;;;;;5.55;4.00;;;;;;;10.90;84.61;98575.11;1636599;87;26629;-59
2022/09/20 07:45:08;;;;;;;5.45;3.67;;;;;;;11.03;84.60;98578.05;1637665;86;25676;-59
2022/09/20 07:47:35;;;;;;;4.87;4.10;;;;;;;11.11;84.25;98579.20;1637065;87;27384;-59
2022/09/20 07:50:03;;;;;;;6.03;4.12;;;;;;;11.12;82.92;98586.29;1638046;86;25670;-59
2022/09/20 07:52:30;;;;;;;4.97;4.10;;;;;;;11.16;84.42;98585.34;1637194;86;25751;-59
2022/09/20 07:54:57;;;;;;;4.42;3.87;;;;;;;11.16;83.50;98581.78;1639858;86;26613;-59
2022/09/20 07:57:23;;;;;;;6.37;4.30;;;;;;;11.22;83.49;98589.28;1642738;85;25734;-59
2022/09/20 07:59:50;;;;;;;5.75;4.37;;;;;;;11.30;83.80;98591.25;1651585;86;28012;-59
2022/09/20 08:02:17;;;;;;;6.53;4.10;;;;;;;11.36;84.18;98593.27;1651523;86;25981;-59
2022/09/20 08:04:44;;;;;;;4.45;4.03;;;;;;;11.47;83.90;98592.39;1651611;86;25671;-59
2022/09/20 08:07:11;;;;;;;5.17;3.70;;;;;;;11.58;84.08;98591.52;1652600;86;25894;-60
2022/09/20 08:09:38;;;;;;;4.35;3.83;;;;;;;11.73;83.54;98584.18;1651792;86;25758;-59
2022/09/20 08:12:07;;;;;;;5.28;4.17;;;;;;;11.87;82.31;98582.64;1652512;86;27560;-59
2022/09/20 08:14:34;;;;;;;5.45;3.72;;;;;;;11.96;83.57;98590.05;1652482;86;25457;-59
2022/09/20 08:17:01;;;;;;;4.72;3.85;;;;;;;12.02;81.55;98594.25;1652527;86;25478;-59
2022/09/20 08:19:29;;;;;;;7.62;4.53;;;;;;;12.05;81.64;98588.10;1652664;86;25753;-59
2022/09/20 08:21:56;;;;;;;6.67;4.50;;;;;;;12.13;81.32;98589.25;1652518;86;25616;-60
2022/09/20 08:24:25;;;;;;;6.42;4.92;;;;;;;12.13;81.86;98594.19;1652626;86;27427;-59
2022/09/20 08:26:51;;;;;;;6.80;5.12;;;;;;;12.18;81.82;98594.59;1652442;86;25520;-59
2022/09/20 08:29:18;;;;;;;7.53;5.67;;;;;;;12.18;81.09;98597.34;1652694;86;25652;-59
2022/09/20 08:31:45;;;;;;;8.30;4.90;;;;;;;12.23;82.34;98594.98;1652701;86;25735;-59
2022/09/20 08:34:14;;;;;;;6.30;5.05;;;;;;;12.20;80.76;98597.80;1652647;86;25623;-59
2022/09/20 08:36:45;;;;;;;5.03;4.12;;;;;;;12.17;81.29;98595.14;1652722;86;27439;-59
2022/09/20 08:39:13;;;;;;;5.33;4.12;;;;;;;12.26;80.56;98597.87;1652578;86;25743;-59
2022/09/20 08:41:56;;;;;;;6.47;3.87;;;;;;;12.35;80.79;98595.09;1653101;86;25643;-59
2022/09/20 08:44:27;;;;;;;3.95;3.17;;;;;;;12.43;79.81;98589.34;1652516;86;25915;-59
2022/09/20 08:47:08;;;;;;;4.35;3.40;;;;;;;12.47;78.95;98590.31;1652679;86;25473;-59
2022/09/20 08:49:36;;;;;;;3.37;2.60;;;;;;;12.48;79.60;98599.34;1651333;86;27407;-59
2022/09/20 08:52:04;;;;;;;2.30;2.08;;;;;;;12.44;79.22;98606.64;1652545;86;25680;-60
2022/09/20 08:54:33;;;;;;;4.20;2.72;;;;;;;12.30;79.56;98606.28;1652648;86;25630;-59
2022/09/20 08:57:07;;;;;;;3.95;3.20;;;;;;;12.24;80.20;98607.58;1610227;87;25756;-59
2022/09/20 08:59:34;;;;;;;5.28;3.33;;;;;;;12.26;80.11;98611.61;1636717;85;25706;-59
2022/09/20 09:02:16;;;;;;;6.45;3.77;;;;;;;12.33;78.92;98611.13;1641740;86;28717;-59
2022/09/20 09:04:45;;;;;;;4.87;3.10;;;;;;;12.41;77.52;98613.61;1642330;86;25802;-60
2022/09/20 09:07:15;;;;;;;4.65;3.62;;;;;;;12.48;77.89;98615.28;1641429;86;25695;-60
2022/09/20 09:09:47;;;;;;;3.60;3.02;;;;;;;12.69;79.29;98612.39;1642409;86;26585;-60
2022/09/20 09:12:28;;;;;;;4.72;2.98;;;;;;;12.96;78.41;98608.95;1642158;86;25754;-60
2022/09/20 09:15:07;;;;;;;3.22;2.47;;;;;;;13.17;78.10;98601.57;1642302;86;28406;-60
2022/09/20 09:17:35;;;;;;;3.10;2.35;;;;;;;13.41;77.14;98607.00;1632184;86;25775;-60
2022/09/20 09:20:24;;;;;;;2.40;2.20;;;;;;;13.55;75.58;98604.02;1642058;86;25754;-60
2022/09/20 09:23:07;;;;;;;2.98;2.05;;;;;;;13.52;74.78;98605.25;1642364;86;26000;-60
2022/09/20 09:25:40;;;;;;;3.42;1.80;;;;;;;13.39;74.78;98604.35;1642486;86;26416;-60
2022/09/20 09:28:13;;;;;;;2.92;1.70;;;;;;;13.26;74.45;98602.89;1642302;86;27373;-61
2022/09/20 09:30:44;;;;;;;2.05;0.95;;;;;;;13.24;74.57;98609.88;1640506;86;25944;-60
2022/09/20 09:33:24;;;;;;;2.17;1.50;;;;;;;13.22;73.23;98607.45;1621827;87;32543;-60
2022/09/20 09:35:58;;;;;;;;;;;;;;;13.31;74.13;98611.52;1626003;87;26490;-61
2022/09/20 09:38:29;;;;;;;2.65;1.07;;;;;;;13.45;74.72;98607.14;1621560;87;25714;-61
2022/09/20 09:40:57;;;;;;;;;;;;;;;13.58;74.18;98604.50;1624409;87;27324;-61
2022/09/20 09:43:32;;;;;;;2.65;1.20;;;;;;;13.78;73.78;98606.44;1621407;87;25726;-61
2022/09/20 09:46:21;;;;;;;1.42;1.10;;;;;;;13.99;73.77;98602.06;1621521;87;25772;-61
2022/09/20 09:49:10;;;;;;;2.80;1.93;;;;;;;14.21;70.73;98603.62;1621351;87;25709;-61
2022/09/20 09:51:37;;;;;;;2.85;1.55;;;;;;;14.28;72.32;98599.73;1621654;87;25737;-61
2022/09/20 09:54:07;;;;;;;4.03;1.65;;;;;;;14.37;72.76;98601.04;1644896;85;27854;-61
2022/09/20 09:57:02;;;;;;;3.77;2.42;;;;;;;14.40;72.06;98599.55;1651722;85;25791;-60
2022/09/20 10:00:11;;;;;;;3.83;2.92;;;;;;;14.53;70.37;98598.98;1644355;86;25771;-60
2022/09/20 10:03:07;;;;;;;2.40;1.75;;;;;;;14.73;71.02;98585.45;1587385;89;25819;-61
2022/09/20 10:05:45;;;;;;;2.27;1.60;;;;;;;14.95;69.23;98582.05;1580958;90;25858;-61
2022/09/20 10:08:48;;;;;;;6.10;4.20;;;;;;;14.95;69.23;98582.05;1595128;89;28102;-61
2022/09/20 10:11:27;;;;;;;7.58;2.40;;;;;;;15.13;67.34;98577.08;1599762;89;26331;-60
2022/09/20 10:14:28;;;;;;;4.55;3.10;;;;;;;15.13;67.34;98577.08;1600183;89;25759;-61
2022/09/20 10:17:18;;;;;;;3.20;2.70;;;;;;;14.61;67.58;98591.19;1600293;89;25804;-61
2022/09/20 10:20:42;;;;;;;2.92;2.35;;;;;;;14.61;67.58;98591.19;1600307;89;25794;-61
2022/09/20 10:23:23;;;;;;;3.10;2.15;;;;;;;14.32;68.90;98586.64;1601291;89;27447;-61
2022/09/20 10:26:12;;;;;;;16.42;8.98;;;;;;;14.14;70.36;98593.73;1594692;89;25927;-60
2022/09/20 10:29:04;;;;;;;3.80;2.65;;;;;;;14.00;70.90;98604.47;1634685;86;25683;-60
2022/09/20 10:31:47;;;;;;;1.90;1.30;;;;;;;13.93;71.72;98595.37;1634137;86;25973;-62
2022/09/20 10:34:55;;;;;;;4.10;1.42;;;;;;;13.69;70.84;98593.30;1674054;84;25759;-61
2022/09/20 10:37:45;;;;;;;3.42;1.65;;;;;;;13.56;71.09;98603.46;1685142;84;27408;-62
2022/09/20 10:40:23;;;;;;;2.52;1.87;;;;;;;13.46;71.74;98603.24;1685088;84;25676;-62
2022/09/20 10:46:13;;;;;;;2.47;1.52;;;;;;;13.89;72.65;98586.17;1684910;84;25402;-61
2022/09/20 10:48:51;;;;;;;8.58;6.53;;;;;;;14.72;70.74;98592.12;1685016;85;25667;-61
2022/09/20 10:51:42;;;;;;;2.72;1.95;;;;;;;16.52;66.61;98583.97;1685148;84;28199;-61
2022/09/20 10:54:36;;;;;;;4.87;2.08;;;;;;;16.52;66.61;98583.97;1685194;85;25482;-62
2022/09/20 10:57:40;;;;;;;8.98;5.80;;;;;;;16.98;64.81;98596.55;1685136;84;25643;-61
2022/09/20 11:00:54;;;;;;;4.40;3.67;;;;;;;16.90;62.80;98596.95;1684151;84;25743;-62
2022/09/20 11:03:52;;;;;;;4.35;2.60;;;;;;;16.52;63.40;98608.08;1685127;84;25683;-62
2022/09/20 11:07:02;;;;;;;3.08;2.40;;;;;;;16.00;63.76;98607.28;1684934;84;27534;-62
2022/09/20 11:09:37;;;;;;;3.97;2.73;;;;;;;15.85;65.19;98610.19;1685266;84;25625;-62
2022/09/20 11:12:21;;;;;;;5.17;3.10;;;;;;;15.64;65.87;98605.66;1685225;84;25660;-62
2022/09/20 11:14:58;;;;;;;4.10;2.98;;;;;;;15.47;66.03;98610.05;1684956;84;26362;-62
2022/09/20 11:17:43;;;;;;;4.05;2.92;;;;;;;15.47;66.44;98609.48;1685246;83;25466;-62
2022/09/20 11:20:26;;;;;;;4.03;3.30;;;;;;;15.38;66.00;98599.96;1684467;84;27336;-62
2022/09/20 11:23:00;;;;;;;4.53;2.85;;;;;;;15.79;66.91;98596.39;1685622;84;25446;-62
2022/09/20 11:25:44;;;;;;;4.22;2.55;;;;;;;16.61;64.25;98586.56;1685142;84;25613;-62
2022/09/20 11:28:25;;;;;;;4.28;2.33;;;;;;;17.10;62.84;98592.90;1686274;84;25724;-62
2022/09/20 11:31:15;;;;;;;3.15;2.20;;;;;;;17.34;61.86;98591.66;1687172;85;25666;-62
2022/09/20 11:33:51;;;;;;;2.20;2.02;;;;;;;17.57;62.10;98593.16;1687448;85;27550;-62
2022/09/20 11:36:43;;;;;;;4.92;3.52;;;;;;;18.00;60.26;98599.37;1687376;84;25925;-62
2022/09/20 11:39:24;;;;;;;4.03;2.90;;;;;;;18.05;58.63;98604.63;1687240;85;25694;-62
2022/09/20 11:41:55;;;;;;;4.78;3.40;;;;;;;17.57;54.56;98608.40;1686736;85;25898;-62
2022/09/20 11:44:23;;;;;;;4.08;2.27;;;;;;;17.35;56.36;98605.72;1687408;85;25660;-62
2022/09/20 11:47:07;;;;;;;3.67;2.87;;;;;;;16.98;58.27;98604.07;1687603;84;27456;-62
2022/09/20 11:49:54;;;;;;;9.48;6.30;;;;;;;16.92;58.23;98604.33;1684112;85;25700;-62
2022/09/20 11:52:35;;;;;;;6.42;5.33;;;;;;;16.90;58.72;98601.11;1687824;84;25623;-62
2022/09/20 11:55:29;;;;;;;8.58;6.15;;;;;;;16.48;57.35;98603.83;1687613;85;26109;-63
2022/09/20 11:58:14;;;;;;;3.25;2.70;;;;;;;16.16;58.17;98603.77;1687206;84;25672;-62
2022/09/20 12:00:45;;;;;;;4.42;3.35;;;;;;;15.92;56.64;98609.01;1687046;85;26833;-63
2022/09/20 12:03:36;;;;;;;2.62;2.30;;;;;;;16.38;58.96;98603.75;1687361;85;25644;-63
2022/09/20 12:06:34;;;;;;;3.67;2.80;;;;;;;16.97;55.09;98603.83;1687275;85;25640;-63
2022/09/20 12:09:04;;;;;;;4.58;3.25;;;;;;;17.15;54.74;98598.75;1687128;85;25738;-63
2022/09/20 12:11:33;;;;;;;;;;;;;;;17.06;56.14;98590.61;1690280;84;25396;-63
2022/09/20 12:14:16;;;;;;;4.95;2.10;;;;;;;17.45;57.18;98594.67;1687330;85;27452;-63
2022/09/20 12:16:46;;;;;;;1.70;1.52;;;;;;;17.86;55.50;98589.61;1687601;85;25708;-62
2022/09/20 12:19:33;;;;;;;1.60;1.42;;;;;;;18.57;54.36;98597.50;1687722;85;25510;-62
2022/09/20 12:22:05;;;;;;;3.25;1.85;;;;;;;19.08;50.49;98596.13;1687296;84;25745;-62
2022/09/20 12:24:36;;;;;;;1.32;1.20;;;;;;;19.39;48.75;98595.03;1687272;85;25739;-62
2022/09/20 12:27:28;;;;;;;2.50;1.50;;;;;;;19.52;49.60;98595.59;1686961;83;28179;-62
2022/09/20 12:30:20;;;;;;;1.72;1.40;;;;;;;19.61;47.41;98595.91;1685504;84;25667;-62
2022/09/20 12:32:55;;;;;;;1.47;1.37;;;;;;;18.95;49.74;98593.55;1684979;84;25657;-62
2022/09/20 12:35:54;;;;;;;1.87;1.20;;;;;;;19.06;49.38;98594.52;1685432;84;26317;-62
2022/09/20 12:38:29;;;;;;;2.12;1.52;;;;;;;18.99;50.85;98596.38;1684880;84;25441;-63
2022/09/20 12:41:13;;;;;;;2.67;1.52;;;;;;;18.84;49.94;98590.60;1684908;84;28416;-63
2022/09/20 12:43:56;;;;;;;1.70;1.30;;;;;;;18.60;50.39;98603.70;1685211;84;25451;-63
2022/09/20 12:46:42;;;;;;;1.70;1.10;;;;;;;18.28;49.87;98596.97;1684724;85;25689;-63
2022/09/20 12:52:50;;;;;;;1.50;1.30;;;;;;;17.75;51.44;98596.88;1661280;86;25699;-63
2022/09/20 12:55:55;;;;;;;2.10;1.30;;;;;;;17.34;51.46;98597.20;1657414;86;27507;-63
2022/09/20 12:58:31;;;;;;;2.25;1.40;;;;;;;16.83;51.87;98598.17;1657381;86;25547;-63
2022/09/20 13:01:08;;;;;;;1.50;1.32;;;;;;;16.54;53.04;98596.88;1644401;86;25748;-63
2022/09/20 13:03:41;;;;;;;2.08;1.55;;;;;;;16.48;54.32;98591.38;1657447;86;25852;-63
2022/09/20 13:06:19;;;;;;;5.45;1.98;;;;;;;16.65;54.62;98590.81;1657447;86;25806;-63
2022/09/20 13:09:08;;;;;;;2.60;1.65;;;;;;;16.92;54.85;98589.67;1657337;86;27486;-62